createdAt,value
2023-02-03T00:01:55.609Z,31.00
2023-02-03T00:04:28.651Z,27.53
2023-02-03T00:06:55.990Z,27.63
2023-02-03T00:09:23.325Z,25.40
2023-02-03T00:11:50.303Z,26.40
2023-02-03T00:14:17.440Z,21.90
2023-02-03T00:16:44.374Z,26.10
2023-02-03T00:19:11.310Z,24.70
2023-02-03T00:21:38.191Z,28.13
2023-02-03T00:24:05.353Z,42.10
2023-02-03T00:26:32.273Z,21.67
2023-02-03T00:29:00.408Z,29.27
2023-02-03T00:31:27.477Z,23.60
2023-02-03T00:33:58.154Z,22.37
2023-02-03T00:36:26.166Z,29.10
2023-02-03T00:38:54.314Z,26.67
2023-02-03T00:41:22.070Z,23.03
2023-02-03T00:43:50.163Z,22.93
2023-02-03T00:46:17.120Z,24.43
2023-02-03T00:48:44.004Z,25.57
2023-02-03T00:51:11.119Z,33.80
2023-02-03T00:53:38.010Z,22.90
2023-02-03T00:56:12.930Z,25.50
2023-02-03T00:58:43.233Z,32.93
2023-02-03T01:01:10.884Z,23.77
2023-02-03T01:03:38.314Z,31.47
2023-02-03T01:06:11.086Z,28.10
2023-02-03T01:08:38.057Z,28.00
2023-02-03T01:11:10.196Z,28.30
2023-02-03T01:13:38.285Z,30.13
2023-02-03T01:16:08.243Z,32.07
2023-02-03T01:18:35.257Z,20.50
2023-02-03T01:21:10.934Z,31.17
2023-02-03T01:23:38.676Z,23.93
2023-02-03T01:26:07.681Z,25.10
2023-02-03T01:28:34.823Z,28.70
2023-02-03T01:31:20.142Z,31.80
2023-02-03T01:33:48.611Z,23.80
2023-02-03T01:36:17.111Z,25.27
2023-02-03T01:38:45.091Z,26.87
2023-02-03T01:41:17.104Z,25.47
2023-02-03T01:43:48.422Z,20.67
2023-02-03T01:46:46.739Z,23.73
2023-02-03T01:49:19.820Z,26.07
2023-02-03T01:51:47.159Z,24.87
2023-02-03T01:54:22.915Z,22.80
2023-02-03T01:56:56.530Z,26.93
2023-02-03T01:59:24.739Z,22.20
2023-02-03T02:01:54.070Z,22.40
2023-02-03T02:04:24.796Z,23.67
2023-02-03T02:06:52.082Z,30.97
2023-02-03T02:09:18.934Z,22.20
2023-02-03T02:11:45.892Z,30.33
2023-02-03T02:14:12.811Z,21.00
2023-02-03T02:17:02.064Z,26.93
2023-02-03T02:20:02.603Z,25.10
2023-02-03T02:23:08.735Z,22.20
2023-02-03T02:26:03.286Z,28.43
2023-02-03T02:28:51.617Z,33.93
2023-02-03T02:31:37.046Z,23.13
2023-02-03T02:34:15.836Z,24.63
2023-02-03T02:37:04.813Z,21.73
2023-02-03T02:39:39.992Z,14.47
2023-02-03T02:42:23.795Z,15.50
2023-02-03T02:44:59.375Z,18.27
2023-02-03T02:47:26.050Z,28.70
2023-02-03T02:50:20.952Z,25.10
2023-02-03T02:52:49.338Z,20.57
2023-02-03T02:55:24.610Z,17.93
2023-02-03T02:57:54.500Z,23.07
2023-02-03T03:00:22.898Z,14.60
2023-02-03T03:02:49.986Z,23.27
2023-02-03T03:05:18.739Z,15.57
2023-02-03T03:07:51.047Z,23.80
2023-02-03T03:10:24.619Z,20.97
2023-02-03T03:12:57.683Z,22.50
2023-02-03T03:15:30.771Z,21.83
2023-02-03T03:18:05.215Z,25.03
2023-02-03T03:20:33.348Z,19.67
2023-02-03T03:23:06.636Z,15.50
2023-02-03T03:25:49.035Z,18.93
2023-02-03T03:28:24.149Z,15.20
2023-02-03T03:30:51.018Z,16.10
2023-02-03T03:33:18.440Z,16.17
2023-02-03T03:35:55.656Z,23.03
2023-02-03T03:38:33.235Z,22.03
2023-02-03T03:41:07.537Z,17.73
2023-02-03T03:43:39.831Z,15.70
2023-02-03T03:46:16.317Z,16.43
2023-02-03T03:49:02.983Z,17.27
2023-02-03T03:51:40.215Z,15.23
2023-02-03T03:54:10.582Z,18.60
2023-02-03T03:57:15.282Z,12.80
2023-02-03T03:59:46.925Z,13.27
2023-02-03T04:02:14.586Z,18.43
2023-02-03T04:04:43.543Z,17.10
2023-02-03T04:07:10.706Z,8.43
2023-02-03T04:09:37.469Z,17.27
2023-02-03T04:12:06.269Z,17.63
2023-02-03T04:14:38.558Z,8.37
2023-02-03T04:17:05.832Z,10.17
2023-02-03T04:19:32.899Z,12.77
2023-02-03T04:21:59.550Z,10.40
2023-02-03T04:24:26.303Z,10.80
2023-02-03T04:26:52.982Z,14.23
2023-02-03T04:29:20.085Z,6.87
2023-02-03T04:31:46.810Z,7.23
2023-02-03T04:34:13.489Z,8.77
2023-02-03T04:36:40.216Z,10.63
2023-02-03T04:39:06.879Z,7.97
2023-02-03T04:41:33.622Z,11.33
2023-02-03T04:44:00.526Z,11.23
2023-02-03T04:46:27.341Z,6.10
2023-02-03T04:48:54.078Z,9.17
2023-02-03T04:51:21.307Z,6.10
2023-02-03T04:53:47.967Z,9.63
2023-02-03T04:56:16.248Z,8.00
2023-02-03T04:58:43.042Z,10.47
2023-02-03T05:01:10.303Z,9.13
2023-02-03T05:03:37.781Z,12.20
2023-02-03T05:06:05.510Z,7.53
2023-02-03T05:08:32.917Z,10.30
2023-02-03T05:11:01.992Z,7.23
2023-02-03T05:13:29.463Z,11.83
2023-02-03T05:15:56.142Z,12.40
2023-02-03T05:18:22.799Z,8.87
2023-02-03T05:20:50.041Z,5.30
2023-02-03T05:23:16.696Z,7.23
2023-02-03T05:25:44.479Z,5.30
2023-02-03T05:28:11.199Z,8.20
2023-02-03T05:30:38.535Z,10.10
2023-02-03T05:33:05.325Z,7.63
2023-02-03T05:35:31.994Z,6.30
2023-02-03T05:37:59.842Z,6.43
2023-02-03T05:40:45.866Z,5.13
2023-02-03T05:43:12.715Z,9.03
2023-02-03T05:45:39.762Z,9.03
2023-02-03T05:48:09.737Z,5.03
2023-02-03T05:50:38.679Z,6.17
2023-02-03T05:53:06.522Z,6.40
2023-02-03T05:55:33.943Z,7.43
2023-02-03T05:58:01.387Z,7.47
2023-02-03T06:00:29.268Z,8.20
2023-02-03T06:02:58.870Z,7.13
2023-02-03T06:05:26.364Z,8.60
2023-02-03T06:07:53.127Z,3.90
2023-02-03T06:10:20.177Z,10.93
2023-02-03T06:12:47.135Z,14.10
2023-02-03T06:15:14.420Z,7.83
2023-02-03T06:17:44.885Z,5.33
2023-02-03T06:20:12.453Z,4.03
2023-02-03T06:22:39.425Z,6.70
2023-02-03T06:25:06.634Z,6.07
2023-02-03T06:27:33.557Z,5.70
2023-02-03T06:30:00.238Z,6.80
2023-02-03T06:32:27.164Z,3.33
2023-02-03T06:34:53.926Z,9.03
2023-02-03T06:37:20.642Z,6.37
2023-02-03T06:39:47.275Z,7.10
2023-02-03T06:42:15.533Z,5.70
2023-02-03T06:44:42.333Z,4.67
2023-02-03T06:47:09.055Z,6.70
2023-02-03T06:49:35.727Z,14.70
2023-02-03T06:52:02.432Z,7.87
2023-02-03T06:54:29.114Z,4.80
2023-02-03T06:56:55.815Z,7.83
2023-02-03T06:59:22.720Z,7.53
2023-02-03T07:01:49.823Z,11.33
2023-02-03T07:04:17.021Z,7.07
2023-02-03T07:06:43.696Z,5.63
2023-02-03T07:09:10.576Z,5.93
2023-02-03T07:11:37.247Z,9.03
2023-02-03T07:14:04.041Z,9.97
2023-02-03T07:16:31.295Z,4.83
2023-02-03T07:18:58.711Z,7.57
2023-02-03T07:21:25.614Z,8.33
2023-02-03T07:23:52.726Z,13.03
2023-02-03T07:26:19.522Z,6.17
2023-02-03T07:28:46.257Z,9.37
2023-02-03T07:31:13.041Z,7.77
2023-02-03T07:33:39.926Z,7.23
2023-02-03T07:36:07.471Z,12.47
2023-02-03T07:38:34.262Z,6.10
2023-02-03T07:41:01.600Z,8.43
2023-02-03T07:43:28.309Z,6.50
2023-02-03T07:45:54.999Z,11.60
2023-02-03T07:48:21.655Z,10.27
2023-02-03T07:50:48.972Z,6.67
2023-02-03T07:53:15.938Z,5.97
2023-02-03T07:55:42.845Z,12.23
2023-02-03T07:58:09.687Z,8.23
2023-02-03T08:00:36.636Z,16.77
2023-02-03T08:03:04.056Z,8.90
2023-02-03T08:05:30.960Z,15.00
2023-02-03T08:08:00.908Z,15.37
2023-02-03T08:10:29.269Z,11.70
2023-02-03T08:12:56.691Z,6.10
2023-02-03T08:15:23.588Z,5.27
2023-02-03T08:17:50.806Z,7.10
2023-02-03T08:20:18.522Z,6.37
2023-02-03T08:22:46.022Z,5.70
2023-02-03T08:25:13.661Z,7.63
2023-02-03T08:27:41.324Z,8.17
2023-02-03T08:30:12.873Z,9.77
2023-02-03T08:32:39.935Z,10.37
2023-02-03T08:35:08.347Z,11.67
2023-02-03T08:37:35.443Z,8.67
2023-02-03T08:40:02.495Z,6.03
2023-02-03T08:42:29.557Z,10.33
2023-02-03T08:44:56.444Z,10.77
2023-02-03T08:47:23.851Z,11.33
2023-02-03T08:49:50.709Z,16.97
2023-02-03T08:52:19.210Z,7.50
2023-02-03T08:54:46.967Z,16.30
2023-02-03T08:57:14.338Z,9.53
2023-02-03T08:59:43.546Z,11.20
2023-02-03T09:02:14.982Z,12.97
2023-02-03T09:04:41.958Z,7.67
2023-02-03T09:07:09.424Z,10.53
2023-02-03T09:09:36.249Z,7.00
2023-02-03T09:12:05.473Z,10.63
2023-02-03T09:14:33.279Z,14.83
2023-02-03T09:17:04.799Z,14.13
2023-02-03T09:19:33.271Z,11.67
2023-02-03T09:22:01.720Z,13.33
2023-02-03T09:24:28.951Z,9.87
2023-02-03T09:26:56.324Z,7.40
2023-02-03T09:29:23.341Z,13.13
2023-02-03T09:31:53.791Z,9.80
2023-02-03T09:34:21.882Z,11.93
2023-02-03T09:36:49.658Z,17.23
2023-02-03T09:39:16.675Z,12.70
2023-02-03T09:42:01.864Z,21.63
2023-02-03T09:44:50.166Z,17.37
2023-02-03T09:47:25.028Z,14.00
2023-02-03T09:49:57.347Z,24.30
2023-02-03T09:52:28.488Z,23.07
2023-02-03T09:55:05.501Z,17.77
2023-02-03T09:57:40.841Z,15.60
2023-02-03T10:00:23.651Z,13.77
2023-02-03T10:03:00.010Z,12.50
2023-02-03T10:05:51.921Z,14.30
2023-02-03T10:08:28.254Z,12.53
2023-02-03T10:11:11.064Z,10.33
2023-02-03T10:13:47.458Z,15.80
2023-02-03T10:16:37.742Z,16.67
2023-02-03T10:19:13.469Z,12.90
2023-02-03T10:21:51.705Z,11.17
2023-02-03T10:24:53.836Z,14.23
2023-02-03T10:27:24.215Z,11.50
2023-02-03T10:30:18.893Z,10.93
2023-02-03T10:32:46.465Z,19.53
2023-02-03T10:35:14.312Z,13.70
2023-02-03T10:37:45.700Z,10.20
2023-02-03T10:40:16.318Z,7.60
2023-02-03T10:43:06.046Z,14.23
2023-02-03T10:45:38.928Z,13.90
2023-02-03T10:48:11.788Z,25.23
2023-02-03T10:50:44.568Z,13.40
2023-02-03T10:53:32.491Z,18.77
2023-02-03T10:56:12.873Z,10.93
2023-02-03T10:58:48.223Z,13.13
2023-02-03T11:01:18.457Z,12.93
2023-02-03T11:03:59.322Z,16.33
2023-02-03T11:06:27.390Z,12.33
2023-02-03T11:08:54.806Z,10.67
2023-02-03T11:11:25.478Z,11.00
2023-02-03T11:14:16.460Z,14.90
2023-02-03T11:16:47.266Z,11.43
2023-02-03T11:19:18.672Z,19.00
2023-02-03T11:21:49.168Z,16.83
2023-02-03T11:24:23.774Z,15.80
2023-02-03T11:27:07.177Z,11.83
2023-02-03T11:29:40.518Z,12.63
2023-02-03T11:32:17.074Z,10.03
2023-02-03T11:34:58.290Z,7.53
2023-02-03T11:37:28.286Z,11.07
2023-02-03T11:40:34.120Z,7.80
2023-02-03T11:43:14.374Z,9.67
2023-02-03T11:45:48.079Z,15.13
2023-02-03T11:48:27.592Z,7.60
2023-02-03T11:51:13.456Z,11.57
2023-02-03T11:53:57.141Z,9.57
2023-02-03T11:56:46.670Z,9.77
2023-02-03T11:59:21.032Z,11.37
2023-02-03T12:01:57.776Z,12.33
2023-02-03T12:04:43.465Z,10.83
2023-02-03T12:07:30.297Z,10.63
2023-02-03T12:10:06.987Z,11.73
2023-02-03T12:12:56.387Z,9.00
2023-02-03T12:15:54.270Z,9.03
2023-02-03T12:18:55.196Z,15.20
2023-02-03T12:21:45.755Z,10.70
2023-02-03T12:24:34.094Z,8.33
2023-02-03T12:27:13.391Z,10.37
2023-02-03T12:29:49.997Z,14.87
2023-02-03T12:32:25.147Z,6.67
2023-02-03T12:35:10.776Z,8.50
2023-02-03T12:37:46.327Z,13.03
2023-02-03T12:40:54.790Z,21.80
2023-02-03T12:43:22.109Z,10.63
2023-02-03T12:46:04.239Z,23.47
2023-02-03T12:49:02.411Z,9.13
2023-02-03T12:51:51.727Z,18.57
2023-02-03T12:54:37.583Z,18.50
2023-02-03T12:57:33.158Z,12.07
2023-02-03T13:00:19.470Z,9.83
2023-02-03T13:02:53.217Z,16.03
2023-02-03T13:05:28.489Z,7.87
2023-02-03T13:08:34.433Z,13.30
2023-02-03T13:11:41.255Z,9.70
2023-02-03T13:14:41.152Z,8.77
2023-02-03T13:17:15.770Z,8.23
2023-02-03T13:19:53.213Z,7.87
2023-02-03T13:22:24.011Z,11.67
2023-02-03T13:25:14.030Z,15.13
2023-02-03T13:27:48.092Z,5.70
2023-02-03T13:30:35.577Z,12.97
2023-02-03T13:33:17.618Z,12.80
2023-02-03T13:36:04.300Z,7.33
2023-02-03T13:39:12.678Z,6.30
2023-02-03T13:41:50.204Z,8.60
2023-02-03T13:44:22.340Z,9.03
2023-02-03T13:46:51.467Z,9.13
2023-02-03T13:49:27.210Z,8.53
2023-02-03T13:51:54.726Z,9.40
2023-02-03T13:54:29.494Z,15.27
2023-02-03T13:56:59.991Z,14.00
2023-02-03T13:59:40.461Z,20.03
2023-02-03T14:02:19.203Z,19.03
2023-02-03T14:04:45.947Z,7.97
2023-02-03T14:07:33.425Z,22.93
2023-02-03T14:10:20.044Z,15.40
2023-02-03T14:12:49.637Z,18.07
2023-02-03T14:15:26.556Z,10.83
2023-02-03T14:17:54.743Z,18.57
2023-02-03T14:20:28.002Z,22.20
2023-02-03T14:23:06.673Z,18.10
2023-02-03T14:25:48.042Z,23.80
2023-02-03T14:28:40.469Z,22.03
2023-02-03T14:31:15.002Z,23.10
2023-02-03T14:33:48.052Z,15.77
2023-02-03T14:36:39.305Z,15.70
2023-02-03T14:39:36.265Z,25.30
2023-02-03T14:42:45.582Z,18.40
2023-02-03T14:45:28.371Z,16.10
2023-02-03T14:48:10.708Z,16.10
2023-02-03T14:50:43.311Z,14.60
2023-02-03T14:53:16.385Z,38.20
2023-02-03T14:55:55.511Z,20.83
2023-02-03T14:58:34.370Z,19.80
2023-02-03T15:01:04.023Z,22.83
2023-02-03T15:03:31.502Z,16.10
2023-02-03T15:06:01.775Z,20.37
2023-02-03T15:08:37.303Z,26.87
2023-02-03T15:11:26.850Z,20.03
2023-02-03T15:13:54.831Z,18.93
2023-02-03T15:16:24.134Z,16.47
2023-02-03T15:18:59.402Z,17.90
2023-02-03T15:21:26.961Z,21.53
2023-02-03T15:23:54.161Z,26.43
2023-02-03T15:26:27.574Z,15.73
2023-02-03T15:28:59.752Z,22.20
2023-02-03T15:31:45.934Z,25.43
2023-02-03T15:34:22.693Z,25.47
2023-02-03T15:36:55.332Z,24.47
2023-02-03T15:39:24.857Z,17.60
2023-02-03T15:41:56.367Z,21.03
2023-02-03T15:44:50.664Z,20.00
2023-02-03T15:47:54.846Z,18.73
2023-02-03T15:50:28.025Z,22.53
2023-02-03T15:53:01.233Z,21.47
2023-02-03T15:55:33.091Z,17.57
2023-02-03T15:58:00.228Z,21.33
2023-02-03T16:00:38.166Z,22.03
2023-02-03T16:03:15.364Z,25.90
2023-02-03T16:05:44.704Z,15.73
2023-02-03T16:08:36.727Z,23.87
2023-02-03T16:11:20.581Z,20.40
2023-02-03T16:13:47.239Z,28.80
2023-02-03T16:16:36.344Z,17.00
2023-02-03T16:19:15.291Z,18.17
2023-02-03T16:21:50.962Z,27.87
2023-02-03T16:24:33.511Z,23.53
2023-02-03T16:27:22.255Z,16.17
2023-02-03T16:30:08.144Z,14.97
2023-02-03T16:32:53.711Z,20.60
2023-02-03T16:35:39.273Z,19.53
2023-02-03T16:38:35.235Z,24.70
2023-02-03T16:41:22.721Z,24.70
2023-02-03T16:44:08.241Z,16.13
2023-02-03T16:46:53.538Z,20.57
2023-02-03T16:49:39.098Z,29.53
2023-02-03T16:52:06.528Z,30.53
2023-02-03T16:54:33.240Z,20.73
2023-02-03T16:56:59.995Z,20.00
2023-02-03T16:59:26.750Z,24.13
2023-02-03T17:01:53.810Z,41.40
2023-02-03T17:04:20.588Z,16.07
2023-02-03T17:06:51.017Z,25.17
2023-02-03T17:09:23.575Z,23.13
2023-02-03T17:11:50.640Z,26.60
2023-02-03T17:14:17.483Z,25.33
2023-02-03T17:16:44.219Z,18.03
2023-02-03T17:19:12.401Z,24.43
2023-02-03T17:21:39.367Z,25.10
2023-02-03T17:24:06.479Z,24.07
2023-02-03T17:26:34.494Z,24.70
2023-02-03T17:29:03.728Z,23.27
2023-02-03T17:31:31.032Z,22.00
2023-02-03T17:33:58.302Z,18.13
2023-02-03T17:36:25.088Z,13.00
2023-02-03T17:55:26.968Z,18.70
2023-02-03T17:57:54.115Z,20.43
2023-02-03T18:00:21.139Z,25.90
2023-02-03T18:02:52.215Z,23.77
2023-02-03T18:05:18.927Z,21.90
2023-02-03T18:07:45.634Z,30.70
2023-02-03T18:10:12.493Z,25.67
2023-02-03T18:12:39.191Z,25.87
2023-02-03T18:15:06.196Z,23.80
2023-02-03T18:17:32.891Z,21.33
2023-02-03T18:20:05.656Z,18.63
2023-02-03T18:22:33.870Z,26.93
2023-02-03T18:25:00.508Z,36.50
2023-02-03T18:27:27.700Z,22.20
2023-02-03T18:29:54.600Z,24.13
2023-02-03T18:32:21.311Z,28.97
2023-02-03T18:34:48.090Z,26.57
2023-02-03T18:37:15.174Z,23.27
2023-02-03T18:39:41.919Z,19.57
2023-02-03T18:42:09.356Z,26.40
2023-02-03T18:44:36.336Z,19.20
2023-02-03T18:47:07.041Z,20.30
2023-02-03T18:49:36.140Z,21.17
2023-02-03T18:52:03.407Z,16.83
2023-02-03T18:54:30.414Z,17.50
2023-02-03T18:57:03.121Z,20.23
2023-02-03T18:59:30.068Z,20.10
2023-02-03T19:01:57.009Z,21.53
2023-02-03T19:04:23.730Z,26.30
2023-02-03T19:06:52.463Z,30.40
2023-02-03T19:09:20.948Z,30.47
2023-02-03T19:11:47.788Z,24.77
2023-02-03T19:14:14.638Z,26.53
2023-02-03T19:16:42.870Z,30.20
2023-02-03T19:19:09.727Z,18.27
2023-02-03T19:21:36.754Z,25.97
2023-02-03T19:24:03.558Z,19.10
2023-02-03T19:26:30.298Z,15.37
2023-02-03T19:28:57.335Z,33.87
2023-02-03T19:31:24.059Z,20.43
2023-02-03T19:33:50.881Z,29.97
2023-02-03T19:36:17.682Z,26.60
2023-02-03T19:38:44.883Z,18.23
2023-02-03T19:41:12.642Z,20.57
2023-02-03T19:43:40.190Z,34.03
2023-02-03T19:46:08.323Z,22.93
2023-02-03T19:48:36.102Z,33.43
2023-02-03T19:51:03.275Z,33.63
2023-02-03T19:53:30.291Z,25.00
2023-02-03T19:55:57.457Z,21.90
2023-02-03T19:58:24.222Z,26.23
2023-02-03T20:00:51.060Z,29.93
2023-02-03T20:03:19.659Z,31.30
2023-02-03T20:05:46.915Z,20.30
2023-02-03T20:08:14.830Z,19.83
2023-02-03T20:10:44.564Z,40.93
2023-02-03T20:13:15.631Z,28.70
2023-02-03T20:15:42.377Z,27.60
2023-02-03T20:18:10.300Z,17.70
2023-02-03T20:20:39.202Z,25.80
2023-02-03T20:23:06.212Z,19.77
2023-02-03T20:25:32.915Z,27.07
2023-02-03T20:28:02.438Z,18.50
2023-02-03T20:30:30.032Z,27.17
2023-02-03T20:32:57.512Z,23.47
2023-02-03T20:35:27.969Z,31.90
2023-02-03T20:37:54.860Z,26.10
2023-02-03T20:40:22.959Z,22.07
2023-02-03T20:42:51.052Z,22.33
2023-02-03T20:45:23.057Z,17.53
2023-02-03T20:47:50.511Z,16.53
2023-02-03T20:50:26.978Z,29.77
2023-02-03T20:52:58.669Z,25.37
2023-02-03T20:55:25.437Z,28.20
2023-02-03T20:57:54.868Z,19.63
2023-02-03T21:00:25.415Z,30.40
2023-02-03T21:03:12.667Z,33.37
2023-02-03T21:05:45.572Z,44.30
2023-02-03T21:08:20.205Z,24.37
2023-02-03T21:10:48.432Z,24.37
2023-02-03T21:13:36.097Z,25.53
2023-02-03T21:16:13.245Z,19.93
2023-02-03T21:18:48.337Z,23.50
2023-02-03T21:21:17.229Z,26.53
2023-02-03T21:23:47.289Z,28.00
2023-02-03T21:26:28.041Z,25.73
2023-02-03T21:28:57.923Z,35.23
2023-02-03T21:31:34.876Z,20.67
2023-02-03T21:34:16.070Z,26.13
2023-02-03T21:36:43.104Z,28.40
2023-02-03T21:39:30.086Z,27.60
2023-02-03T21:41:58.016Z,29.27
2023-02-03T21:44:29.972Z,31.13
2023-02-03T21:46:56.818Z,27.93
2023-02-03T21:49:23.728Z,19.50
2023-02-03T21:51:50.445Z,29.83
2023-02-03T21:54:23.318Z,31.27
2023-02-03T21:56:54.042Z,32.00
2023-02-03T21:59:23.382Z,34.30
2023-02-03T22:01:50.868Z,24.40
2023-02-03T22:04:17.554Z,20.30
2023-02-03T22:06:45.368Z,26.00
2023-02-03T22:09:14.545Z,32.50
2023-02-03T22:11:41.568Z,25.17
2023-02-03T22:14:08.614Z,25.60
2023-02-03T22:16:36.000Z,33.47
2023-02-03T22:19:03.092Z,25.67
2023-02-03T22:21:29.858Z,15.90
2023-02-03T22:23:57.074Z,29.60
2023-02-03T22:26:23.893Z,20.00
2023-02-03T22:28:50.883Z,23.60
2023-02-03T22:31:18.221Z,31.73
2023-02-03T22:33:45.539Z,28.47
2023-02-03T22:36:13.267Z,29.27
2023-02-03T22:38:41.063Z,25.90
2023-02-03T22:41:11.723Z,34.30
2023-02-03T22:43:38.537Z,33.67
2023-02-03T22:46:06.787Z,16.60
2023-02-03T22:48:34.524Z,16.97
2023-02-03T22:51:01.391Z,18.70
2023-02-03T22:53:28.221Z,41.27
2023-02-03T22:55:55.185Z,26.67
2023-02-03T22:58:22.139Z,22.33
2023-02-03T23:00:48.873Z,18.73
2023-02-03T23:03:15.665Z,23.80
2023-02-03T23:05:42.470Z,21.40
2023-02-03T23:08:10.367Z,28.97
2023-02-03T23:10:37.196Z,22.70
2023-02-03T23:13:05.501Z,30.37
2023-02-03T23:15:32.530Z,18.70
2023-02-03T23:17:59.502Z,18.53
2023-02-03T23:20:26.852Z,29.93
2023-02-03T23:22:53.790Z,35.63
2023-02-03T23:25:21.211Z,25.50
2023-02-03T23:27:48.166Z,32.67
2023-02-03T23:30:15.794Z,22.23
2023-02-03T23:32:42.691Z,34.27
2023-02-03T23:35:28.478Z,27.63
2023-02-03T23:37:55.512Z,28.67
2023-02-03T23:40:22.498Z,23.20
2023-02-03T23:42:49.689Z,25.90
2023-02-03T23:45:17.100Z,28.53
2023-02-03T23:47:45.248Z,30.53
2023-02-03T23:50:15.069Z,28.50
2023-02-03T23:52:42.728Z,31.00
2023-02-03T23:55:15.639Z,23.90
2023-02-03T23:57:43.192Z,26.77
